createdAt,value
2022-09-12T00:00:09.293Z,11.20
2022-09-12T00:04:13.008Z,11.20
2022-09-12T00:08:16.373Z,11.20
2022-09-12T00:12:19.706Z,11.20
2022-09-12T00:16:25.664Z,11.30
2022-09-12T00:20:29.041Z,11.30
2022-09-12T00:24:33.569Z,11.30
2022-09-12T00:28:38.051Z,11.20
2022-09-12T00:32:42.998Z,11.20
2022-09-12T00:36:46.248Z,11.10
2022-09-12T00:40:50.057Z,11.00
2022-09-12T00:44:54.476Z,10.90
2022-09-12T00:49:02.767Z,10.80
2022-09-12T00:53:08.691Z,10.70
2022-09-12T00:57:15.352Z,10.60
2022-09-12T01:01:19.667Z,10.60
2022-09-12T01:05:26.270Z,10.60
2022-09-12T01:09:29.584Z,10.60
2022-09-12T01:13:35.513Z,10.60
2022-09-12T01:17:53.152Z,10.70
2022-09-12T01:22:11.999Z,10.80
2022-09-12T01:26:36.893Z,10.90
2022-09-12T01:30:51.621Z,10.80
2022-09-12T01:35:02.224Z,10.80
2022-09-12T01:39:10.897Z,10.80
2022-09-12T01:43:25.507Z,10.70
2022-09-12T01:47:40.805Z,10.60
2022-09-12T01:51:48.896Z,10.50
2022-09-12T01:55:56.972Z,10.50
2022-09-12T02:00:05.941Z,10.50
2022-09-12T02:04:15.353Z,10.60
2022-09-12T02:08:24.362Z,10.50
2022-09-12T02:12:32.842Z,10.50
2022-09-12T02:16:41.588Z,10.40
2022-09-12T02:20:49.605Z,10.30
2022-09-12T02:24:58.176Z,10.30
2022-09-12T02:29:01.639Z,10.20
2022-09-12T02:33:13.465Z,10.10
2022-09-12T02:37:26.308Z,10.00
2022-09-12T02:41:29.704Z,10.00
2022-09-12T02:45:34.519Z,9.90
2022-09-12T02:49:37.948Z,10.00
2022-09-12T02:53:43.510Z,9.90
2022-09-12T02:57:46.654Z,10.00
2022-09-12T03:02:09.278Z,10.10
2022-09-12T03:06:20.001Z,10.30
2022-09-12T03:10:32.830Z,10.40
2022-09-12T03:15:03.680Z,10.60
2022-09-12T03:19:14.869Z,10.60
2022-09-12T03:23:28.812Z,10.70
2022-09-12T03:27:37.196Z,11.00
2022-09-12T03:31:50.910Z,11.10
2022-09-12T03:35:55.125Z,11.20
2022-09-12T03:39:58.292Z,11.20
2022-09-12T03:44:03.162Z,11.20
2022-09-12T03:48:07.505Z,11.20
2022-09-12T03:52:10.993Z,11.40
2022-09-12T03:56:15.032Z,11.40
2022-09-12T04:00:20.077Z,11.40
2022-09-12T04:04:23.282Z,11.40
2022-09-12T04:08:27.380Z,11.50
2022-09-12T04:12:31.170Z,11.50
2022-09-12T04:16:35.972Z,11.60
2022-09-12T04:20:39.130Z,11.60
2022-09-12T04:24:42.373Z,11.60
2022-09-12T04:28:47.270Z,11.60
2022-09-12T04:32:51.989Z,11.70
2022-09-12T04:36:55.263Z,11.70
2022-09-12T04:40:58.601Z,11.70
2022-09-12T04:45:01.820Z,11.70
2022-09-12T04:49:06.917Z,11.70
2022-09-12T04:53:10.261Z,11.60
2022-09-12T04:57:13.829Z,11.40
2022-09-12T05:01:19.348Z,11.40
2022-09-12T05:05:23.901Z,11.40
2022-09-12T05:09:29.249Z,11.50
2022-09-12T05:13:32.874Z,11.50
2022-09-12T05:17:36.161Z,11.40
2022-09-12T05:21:40.637Z,11.50
2022-09-12T05:25:50.332Z,11.50
2022-09-12T05:29:53.602Z,11.60
2022-09-12T05:33:57.691Z,11.60
2022-09-12T05:38:02.662Z,11.50
2022-09-12T05:42:06.664Z,11.40
2022-09-12T05:46:12.761Z,11.40
2022-09-12T05:50:16.165Z,11.30
2022-09-12T05:54:21.404Z,11.40
2022-09-12T05:58:24.648Z,11.40
2022-09-12T06:02:27.862Z,11.40
2022-09-12T06:06:32.417Z,11.50
2022-09-12T06:10:37.490Z,11.50
2022-09-12T06:14:40.682Z,11.60
2022-09-12T06:18:48.065Z,11.70
2022-09-12T06:22:54.606Z,11.80
2022-09-12T06:26:59.240Z,11.90
2022-09-12T06:31:06.435Z,12.10
2022-09-12T06:35:10.352Z,12.20
2022-09-12T06:39:15.390Z,12.40
2022-09-12T06:43:21.116Z,12.60
2022-09-12T06:47:24.671Z,12.80
2022-09-12T06:51:29.461Z,13.20
2022-09-12T06:55:33.877Z,13.60
2022-09-12T06:59:38.641Z,14.10
2022-09-12T07:03:42.625Z,14.60
2022-09-12T07:07:45.822Z,15.40
2022-09-12T07:11:49.252Z,16.10
2022-09-12T07:15:53.811Z,16.60
2022-09-12T07:19:57.073Z,17.30
2022-09-12T07:24:00.579Z,17.80
2022-09-12T07:28:04.333Z,17.90
2022-09-12T07:32:09.938Z,17.90
2022-09-12T07:36:14.769Z,18.20
2022-09-12T07:40:18.264Z,18.00
2022-09-12T07:44:22.135Z,18.00
2022-09-12T07:48:28.453Z,17.90
2022-09-12T07:52:31.734Z,18.10
2022-09-12T07:56:38.940Z,18.40
2022-09-12T08:00:45.923Z,18.30
2022-09-12T08:04:51.668Z,18.50
2022-09-12T08:08:56.486Z,18.60
2022-09-12T08:13:00.097Z,19.00
2022-09-12T08:17:03.399Z,19.10
2022-09-12T08:21:13.840Z,19.40
2022-09-12T08:25:17.184Z,19.60
2022-09-12T08:29:21.118Z,20.00
2022-09-12T08:33:27.397Z,20.60
2022-09-12T08:37:33.008Z,21.30
2022-09-12T08:41:39.842Z,21.40
2022-09-12T08:45:53.225Z,21.90
2022-09-12T08:50:21.652Z,23.00
2022-09-12T08:54:29.190Z,23.70
2022-09-12T08:58:40.651Z,25.90
2022-09-12T09:03:01.989Z,26.60
2022-09-12T09:07:29.057Z,26.70
2022-09-12T09:11:54.612Z,25.20
2022-09-12T09:16:07.523Z,26.50
2022-09-12T09:20:22.380Z,27.80
2022-09-12T09:24:29.681Z,27.10
2022-09-12T09:28:40.926Z,26.10
2022-09-12T09:32:45.170Z,26.10
2022-09-12T09:36:55.257Z,25.20
2022-09-12T09:41:19.938Z,25.60
2022-09-12T09:45:29.354Z,26.60
2022-09-12T09:49:35.413Z,26.10
2022-09-12T09:53:45.226Z,24.50
2022-09-12T09:57:48.535Z,25.70
2022-09-12T10:01:56.017Z,26.80
2022-09-12T10:06:02.543Z,27.60
2022-09-12T10:10:08.750Z,27.40
2022-09-12T10:14:39.030Z,27.60
2022-09-12T10:18:44.149Z,27.30
2022-09-12T10:22:49.589Z,27.40
2022-09-12T10:26:57.220Z,30.00
2022-09-12T10:31:01.681Z,31.50
2022-09-12T10:35:09.306Z,32.10
2022-09-12T10:39:19.427Z,32.60
2022-09-12T10:43:29.118Z,32.50
2022-09-12T10:47:33.107Z,31.10
2022-09-12T10:51:37.625Z,31.60
2022-09-12T10:55:49.873Z,31.80
2022-09-12T11:00:05.688Z,31.20
2022-09-12T11:04:25.158Z,33.80
2022-09-12T11:08:44.866Z,35.30
2022-09-12T11:12:55.957Z,36.60
2022-09-12T11:17:13.656Z,34.00
2022-09-12T11:31:58.320Z,34.80
2022-09-12T16:37:29.444Z,20.80
2022-09-12T16:41:32.701Z,20.50
2022-09-12T16:45:35.863Z,20.20
2022-09-12T16:49:39.085Z,19.90
2022-09-12T16:53:43.987Z,19.60
2022-09-12T16:57:49.391Z,19.30
2022-09-12T17:01:52.661Z,19.10
2022-09-12T17:06:03.091Z,18.80
2022-09-12T17:10:08.585Z,18.60
2022-09-12T17:14:13.011Z,18.40
2022-09-12T17:18:16.272Z,18.10
2022-09-12T17:22:19.733Z,18.00
2022-09-12T17:26:24.441Z,17.80
2022-09-12T17:30:27.812Z,17.70
2022-09-12T17:34:31.363Z,17.60
2022-09-12T17:38:35.797Z,17.50
2022-09-12T17:42:41.083Z,17.40
2022-09-12T17:46:44.847Z,17.20
2022-09-12T17:50:48.879Z,17.10
2022-09-12T17:54:52.112Z,16.90
2022-09-12T17:58:57.552Z,16.80
2022-09-12T18:03:00.754Z,16.60
2022-09-12T18:07:04.605Z,16.50
2022-09-12T18:11:09.473Z,16.40
2022-09-12T18:15:14.668Z,16.40
2022-09-12T18:19:20.057Z,16.30
2022-09-12T18:23:24.201Z,16.20
2022-09-12T18:27:27.450Z,16.10
2022-09-12T18:31:35.248Z,16.20
2022-09-12T18:35:39.650Z,16.20
2022-09-12T18:39:44.545Z,16.10
2022-09-12T18:43:49.830Z,16.00
2022-09-12T18:48:12.637Z,15.90
2022-09-12T18:52:18.866Z,15.80
2022-09-12T18:56:23.292Z,15.70
2022-09-12T19:00:28.291Z,15.70
2022-09-12T19:04:34.007Z,15.80
2022-09-12T19:08:37.808Z,15.80
2022-09-12T19:12:41.942Z,15.90
2022-09-12T19:16:45.474Z,16.00
2022-09-12T19:20:54.102Z,15.90
2022-09-12T19:24:57.476Z,16.00
2022-09-12T19:29:02.953Z,16.00
2022-09-12T19:33:16.515Z,16.00
2022-09-12T19:37:21.330Z,16.00
2022-09-12T19:41:25.010Z,16.00
2022-09-12T19:45:28.730Z,15.90
2022-09-12T19:49:32.235Z,15.80
2022-09-12T19:53:38.796Z,15.60
2022-09-12T19:57:44.215Z,15.40
2022-09-12T20:01:49.007Z,15.30
2022-09-12T20:05:54.770Z,15.10
2022-09-12T20:10:00.092Z,15.00
2022-09-12T20:14:04.098Z,14.90
2022-09-12T20:18:08.079Z,14.70
2022-09-12T20:22:12.801Z,14.70
2022-09-12T20:26:20.493Z,14.50
2022-09-12T20:30:23.965Z,14.50
2022-09-12T20:34:28.204Z,14.40
2022-09-12T20:38:31.383Z,14.30
2022-09-12T20:42:42.037Z,14.20
2022-09-12T20:46:45.532Z,14.20
2022-09-12T20:50:49.324Z,14.10
2022-09-12T20:54:52.485Z,14.00
2022-09-12T20:58:57.584Z,13.90
2022-09-12T21:03:00.883Z,13.80
2022-09-12T21:07:04.736Z,13.70
2022-09-12T21:11:08.970Z,13.60
2022-09-12T21:15:14.639Z,13.50
2022-09-12T21:19:18.065Z,13.40
2022-09-12T21:23:21.671Z,13.30
2022-09-12T21:27:24.824Z,13.20
2022-09-12T21:31:30.275Z,13.20
2022-09-12T21:35:35.442Z,13.10
2022-09-12T21:39:38.704Z,13.10
2022-09-12T21:43:42.488Z,13.00
2022-09-12T21:47:47.377Z,12.90
2022-09-12T21:51:51.558Z,12.90
2022-09-12T21:55:54.746Z,12.80
2022-09-12T21:59:59.048Z,12.70
2022-09-12T22:04:03.921Z,12.60
2022-09-12T22:08:08.582Z,12.60
2022-09-12T22:12:11.709Z,12.50
2022-09-12T22:16:15.235Z,12.50
2022-09-12T22:20:19.888Z,12.50
2022-09-12T22:24:28.819Z,12.40
2022-09-12T22:28:32.336Z,12.30
2022-09-12T22:32:38.206Z,12.30
2022-09-12T22:36:42.878Z,12.20
2022-09-12T22:40:46.010Z,12.10
2022-09-12T22:44:49.341Z,12.10
2022-09-12T22:48:52.552Z,12.00
2022-09-12T22:52:57.183Z,12.00
2022-09-12T22:57:00.385Z,11.90
2022-09-12T23:01:04.013Z,11.90
2022-09-12T23:05:07.878Z,11.90
2022-09-12T23:09:12.455Z,11.80
2022-09-12T23:13:15.671Z,11.80
2022-09-12T23:17:18.976Z,11.70
2022-09-12T23:21:23.102Z,11.70
2022-09-12T23:25:27.791Z,11.70
2022-09-12T23:29:34.389Z,11.70
2022-09-12T23:33:38.259Z,11.60
2022-09-12T23:37:42.188Z,11.60
2022-09-12T23:41:46.728Z,11.50
2022-09-12T23:45:51.132Z,11.50
2022-09-12T23:49:54.301Z,11.50
2022-09-12T23:53:57.690Z,11.40
2022-09-12T23:58:02.176Z,11.30
